Time;durP1;ratioP1;P1;durP2;ratioP2;P2;SDS_P1;SDS_P2;PMS_P1;PMS_P2;Temp;Humidity;BMP_temperature;BMP_pressure;BME280_temperature;BME280_humidity;BME280_pressure;Samples;Min_cycle;Max_cycle;Signal;HPM_P1;HPM_P2
2021/12/01 00:00:19;;;;;;;0.55;0.40;;;;;;;;;;1832680;77;26281;-34
2021/12/01 00:02:53;;;;;;;0.40;0.40;;;;;;;;;;1838669;76;27367;-35
2021/12/01 00:05:16;;;;;;;0.42;0.42;;;;;;;;;;1842625;76;26293;-34
2021/12/01 00:07:44;;;;;;;0.50;0.50;;;;;;;;;;1833070;76;26609;-34
2021/12/01 00:10:11;;;;;;;0.50;0.50;;;;;;;;;;1840244;77;26293;-34
2021/12/01 00:12:38;;;;;;;0.45;0.45;;;;;;;;;;1845864;77;26265;-34
2021/12/01 00:15:06;;;;;;;0.50;0.50;;;;;;;;;;1848869;77;26284;-34
2021/12/01 00:17:34;;;;;;;0.45;0.45;;;;;;;;;;1857055;76;26272;-34
2021/12/01 00:20:01;;;;;;;0.50;0.50;;;;;;;;;;1841574;76;26335;-34
2021/12/01 00:22:28;;;;;;;0.50;0.50;;;;;;;;;;1844132;77;26801;-34
2021/12/01 00:24:56;;;;;;;0.47;0.47;;;;;;;;;;1851493;76;26249;-34
2021/12/01 00:27:23;;;;;;;0.60;0.60;;;;;;;;;;1846567;76;26280;-34
2021/12/01 00:29:50;;;;;;;0.50;0.50;;;;;;;;;;1837965;76;26249;-34
2021/12/01 00:32:18;;;;;;;0.35;0.35;;;;;;;;;;1850328;77;26258;-34
2021/12/01 00:34:46;;;;;;;0.50;0.50;;;;;;;;;;1847416;76;27332;-34
2021/12/01 00:37:13;;;;;;;0.42;0.42;;;;;;;;;;1853460;77;26361;-34
2021/12/01 00:39:40;;;;;;;0.40;0.40;;;;;;;;;;1853079;77;26366;-34
2021/12/01 00:42:08;;;;;;;0.50;0.50;;;;;;;;;;1856831;76;26836;-34
2021/12/01 00:44:36;;;;;;;0.42;0.42;;;;;;;;;;1849218;76;26367;-34
2021/12/01 00:49:36;;;;;;;0.50;0.50;;;;;;;;;;1843859;77;26353;-34
2021/12/01 00:52:03;;;;;;;0.50;0.50;;;;;;;;;;1846071;76;26312;-34
2021/12/01 00:54:31;;;;;;;0.40;0.30;;;;;;;;;;1838505;76;26716;-34
2021/12/01 00:56:58;;;;;;;0.70;0.50;;;;;;;;;;1839560;77;26275;-34
2021/12/01 00:59:26;;;;;;;0.40;0.40;;;;;;;;;;1846055;76;26633;-34
2021/12/01 01:01:54;;;;;;;0.40;0.40;;;;;;;;;;1843133;76;27164;-34
2021/12/01 01:04:21;;;;;;;0.40;0.40;;;;;;;;;;1842388;76;26327;-35
2021/12/01 01:06:49;;;;;;;0.40;0.40;;;;;;;;;;1843278;77;26334;-37
2021/12/01 01:09:16;;;;;;;0.40;0.40;;;;;;;;;;1844755;77;26555;-34
2021/12/01 01:19:47;;;;;;;0.30;0.30;;;;;;;;;;1834369;77;26281;-34
2021/12/01 01:22:15;;;;;;;0.37;0.37;;;;;;;;;;1823056;76;26281;-35
2021/12/01 01:24:42;;;;;;;0.40;0.40;;;;;;;;;;1845331;76;26686;-34
2021/12/01 01:27:09;;;;;;;0.50;0.50;;;;;;;;;;1834059;76;26275;-34
2021/12/01 01:29:36;;;;;;;0.40;0.40;;;;;;;;;;1843468;76;27035;-34
2021/12/01 01:32:04;;;;;;;0.30;0.30;;;;;;;;;;1838728;76;26227;-34
2021/12/01 01:34:32;;;;;;;0.37;0.37;;;;;;;;;;1837587;76;26879;-34
2021/12/01 01:36:59;;;;;;;0.33;0.33;;;;;;;;;;1842518;77;26276;-35
2021/12/01 01:39:27;;;;;;;0.40;0.40;;;;;;;;;;1842793;76;26289;-34
2021/12/01 01:41:54;;;;;;;0.47;0.47;;;;;;;;;;1840302;77;26246;-34
2021/12/01 01:44:21;;;;;;;0.45;0.45;;;;;;;;;;1842384;76;26705;-34
2021/12/01 01:46:49;;;;;;;0.40;0.40;;;;;;;;;;1838207;76;26637;-35
2021/12/01 01:49:20;;;;;;;0.30;0.30;;;;;;;;;;1840595;76;26258;-34
2021/12/01 01:51:49;;;;;;;0.30;0.30;;;;;;;;;;1839105;76;26867;-34
2021/12/01 01:54:17;;;;;;;0.40;0.40;;;;;;;;;;1831676;76;26819;-34
2021/12/01 01:56:45;;;;;;;0.50;0.50;;;;;;;;;;1835228;76;26371;-35
2021/12/01 01:59:12;;;;;;;0.65;0.47;;;;;;;;;;1843578;76;26757;-34
2021/12/01 02:01:46;;;;;;;0.42;0.42;;;;;;;;;;1843370;76;26285;-35
2021/12/01 02:04:15;;;;;;;0.40;0.40;;;;;;;;;;1842108;76;26732;-34
2021/12/01 02:06:46;;;;;;;0.40;0.40;;;;;;;;;;1833561;76;26827;-34
2021/12/01 02:09:12;;;;;;;0.40;0.40;;;;;;;;;;1831499;76;26356;-34
2021/12/01 02:11:40;;;;;;;0.40;0.40;;;;;;;;;;1846460;76;26293;-34
2021/12/01 02:14:07;;;;;;;1.17;0.40;;;;;;;;;;1842997;77;26761;-35
2021/12/01 02:16:35;;;;;;;0.42;0.42;;;;;;;;;;1835627;77;26331;-35
2021/12/01 02:19:03;;;;;;;0.40;0.40;;;;;;;;;;1836780;77;26417;-34
2021/12/01 02:21:31;;;;;;;0.40;0.40;;;;;;;;;;1843724;77;26319;-34
2021/12/01 02:24:00;;;;;;;0.50;0.50;;;;;;;;;;1834266;76;26395;-34
2021/12/01 02:26:28;;;;;;;0.50;0.50;;;;;;;;;;1835077;76;26713;-35
2021/12/01 02:28:57;;;;;;;0.42;0.42;;;;;;;;;;1839314;76;26304;-34
2021/12/01 02:31:25;;;;;;;0.30;0.30;;;;;;;;;;1844652;76;26253;-34
2021/12/01 02:33:53;;;;;;;0.50;0.50;;;;;;;;;;1844411;77;26331;-34
2021/12/01 02:36:21;;;;;;;0.70;0.37;;;;;;;;;;1842643;76;26794;-34
2021/12/01 02:38:49;;;;;;;0.47;0.47;;;;;;;;;;1845887;76;26281;-34
2021/12/01 02:41:17;;;;;;;1.12;0.40;;;;;;;;;;1843223;76;26735;-34
2021/12/01 02:43:46;;;;;;;0.62;0.40;;;;;;;;;;1846945;76;26349;-35
2021/12/01 02:46:13;;;;;;;0.30;0.30;;;;;;;;;;1834196;77;26293;-35
2021/12/01 02:48:42;;;;;;;0.40;0.40;;;;;;;;;;1843515;76;26689;-34
2021/12/01 02:51:11;;;;;;;0.40;0.40;;;;;;;;;;1846215;76;27005;-35
2021/12/01 02:53:39;;;;;;;0.23;0.23;;;;;;;;;;1846860;77;26658;-35
2021/12/01 02:56:07;;;;;;;0.40;0.40;;;;;;;;;;1841830;76;26284;-34
2021/12/01 02:58:40;;;;;;;0.45;0.40;;;;;;;;;;1844483;76;26301;-34
2021/12/01 03:01:09;;;;;;;0.93;0.80;;;;;;;;;;1836703;77;26292;-34
2021/12/01 03:03:38;;;;;;;2.20;0.47;;;;;;;;;;1834473;76;26316;-34
2021/12/01 03:06:06;;;;;;;0.53;0.40;;;;;;;;;;1841160;76;26307;-34
2021/12/01 03:08:35;;;;;;;0.33;0.33;;;;;;;;;;1836186;76;26339;-34
2021/12/01 03:11:02;;;;;;;0.50;0.50;;;;;;;;;;1835535;77;26301;-34
2021/12/01 03:13:30;;;;;;;0.50;0.50;;;;;;;;;;1836586;76;27467;-34
2021/12/01 03:15:57;;;;;;;0.40;0.40;;;;;;;;;;1841091;76;26254;-34
2021/12/01 03:18:25;;;;;;;0.30;0.30;;;;;;;;;;1829215;76;26799;-34
2021/12/01 03:20:53;;;;;;;0.40;0.40;;;;;;;;;;1847121;76;26269;-34
2021/12/01 03:23:21;;;;;;;0.40;0.40;;;;;;;;;;1837732;76;26312;-34
2021/12/01 03:25:49;;;;;;;0.30;0.30;;;;;;;;;;1834526;77;26289;-34
2021/12/01 03:28:17;;;;;;;0.40;0.40;;;;;;;;;;1832598;76;26277;-34
2021/12/01 03:30:45;;;;;;;0.50;0.50;;;;;;;;;;1835901;76;26320;-34
2021/12/01 03:33:13;;;;;;;0.40;0.40;;;;;;;;;;1836200;76;26268;-34
2021/12/01 03:35:42;;;;;;;0.50;0.50;;;;;;;;;;1834796;76;26903;-34
2021/12/01 03:38:10;;;;;;;0.30;0.30;;;;;;;;;;1836798;76;26759;-34
2021/12/01 03:40:37;;;;;;;0.40;0.40;;;;;;;;;;1832916;76;26309;-34
2021/12/01 03:43:04;;;;;;;0.40;0.40;;;;;;;;;;1834399;76;26269;-34
2021/12/01 03:45:32;;;;;;;0.45;0.45;;;;;;;;;;1833185;76;26316;-34
2021/12/01 03:47:59;;;;;;;0.40;0.40;;;;;;;;;;1828222;76;26275;-34
2021/12/01 03:50:26;;;;;;;0.40;0.40;;;;;;;;;;1831012;77;26367;-35
2021/12/01 03:52:54;;;;;;;0.50;0.50;;;;;;;;;;1824761;77;26347;-34
2021/12/01 03:55:21;;;;;;;0.40;0.40;;;;;;;;;;1827853;76;26225;-34
2021/12/01 03:57:49;;;;;;;0.30;0.30;;;;;;;;;;1844077;76;27546;-34
2021/12/01 04:00:18;;;;;;;0.47;0.47;;;;;;;;;;1828958;76;26776;-34
2021/12/01 04:02:46;;;;;;;0.30;0.30;;;;;;;;;;1833607;76;26269;-34
2021/12/01 04:05:14;;;;;;;0.50;0.50;;;;;;;;;;1838080;76;26155;-34
2021/12/01 04:07:41;;;;;;;0.40;0.40;;;;;;;;;;1838697;76;26288;-34
2021/12/01 04:10:10;;;;;;;0.40;0.40;;;;;;;;;;1840744;76;26288;-34
2021/12/01 04:12:38;;;;;;;0.40;0.40;;;;;;;;;;1834159;76;26363;-35
2021/12/01 04:15:06;;;;;;;0.75;0.30;;;;;;;;;;1841586;76;26788;-34
2021/12/01 04:17:33;;;;;;;0.45;0.45;;;;;;;;;;1840819;76;26635;-34
2021/12/01 04:20:01;;;;;;;0.40;0.40;;;;;;;;;;1843347;76;26321;-33
2021/12/01 04:22:28;;;;;;;0.88;0.42;;;;;;;;;;1842037;76;26249;-33
2021/12/01 04:24:55;;;;;;;1.07;0.50;;;;;;;;;;1842722;76;26252;-33
2021/12/01 04:27:23;;;;;;;1.45;0.68;;;;;;;;;;1841181;76;26309;-33
2021/12/01 04:29:50;;;;;;;1.05;0.60;;;;;;;;;;1837679;76;26312;-34
2021/12/01 04:32:17;;;;;;;1.52;0.55;;;;;;;;;;1839239;76;26898;-33
2021/12/01 04:34:45;;;;;;;0.62;0.50;;;;;;;;;;1836168;76;26263;-33
2021/12/01 04:37:14;;;;;;;2.05;0.50;;;;;;;;;;1842971;76;26245;-33
2021/12/01 04:39:41;;;;;;;0.50;0.50;;;;;;;;;;1843282;76;26321;-33
2021/12/01 04:42:10;;;;;;;1.40;0.65;;;;;;;;;;1844517;76;26698;-33
2021/12/01 04:44:38;;;;;;;0.50;0.50;;;;;;;;;;1844511;76;26362;-34
2021/12/01 04:47:14;;;;;;;1.52;0.50;;;;;;;;;;1847990;76;26701;-33
2021/12/01 04:49:41;;;;;;;0.50;0.50;;;;;;;;;;1845746;76;26349;-33
2021/12/01 04:52:06;;;;;;;0.50;0.50;;;;;;;;;;1842922;76;26221;-33
2021/12/01 04:54:34;;;;;;;1.85;0.60;;;;;;;;;;1845467;76;26813;-33
2021/12/01 04:57:02;;;;;;;1.20;0.50;;;;;;;;;;1847363;76;25915;-34
2021/12/01 04:59:29;;;;;;;1.45;0.50;;;;;;;;;;1841207;76;26254;-34
2021/12/01 05:01:57;;;;;;;2.58;0.72;;;;;;;;;;1845314;76;26316;-35
2021/12/01 05:04:24;;;;;;;2.08;0.70;;;;;;;;;;1841817;76;26609;-33
2021/12/01 05:06:52;;;;;;;0.50;0.50;;;;;;;;;;1844392;76;26396;-33
2021/12/01 05:09:19;;;;;;;1.02;0.45;;;;;;;;;;1846373;76;26298;-34
2021/12/01 05:11:46;;;;;;;2.72;0.78;;;;;;;;;;1845072;75;26376;-34
2021/12/01 05:14:14;;;;;;;5.40;0.60;;;;;;;;;;1858502;75;26729;-34
2021/12/01 05:16:43;;;;;;;0.50;0.50;;;;;;;;;;1860263;75;26257;-33
2021/12/01 05:19:11;;;;;;;0.93;0.45;;;;;;;;;;1858108;75;26305;-33
2021/12/01 05:21:39;;;;;;;0.50;0.50;;;;;;;;;;1858280;75;26933;-33
2021/12/01 05:24:07;;;;;;;0.55;0.50;;;;;;;;;;1860682;75;26327;-34
2021/12/01 05:26:34;;;;;;;0.62;0.40;;;;;;;;;;1855646;75;26270;-33
2021/12/01 05:29:01;;;;;;;0.40;0.40;;;;;;;;;;1857805;75;26875;-33
2021/12/01 05:31:29;;;;;;;0.50;0.50;;;;;;;;;;1857701;75;26762;-34
2021/12/01 05:33:56;;;;;;;0.50;0.50;;;;;;;;;;1856791;75;26258;-33
2021/12/01 05:36:23;;;;;;;1.55;0.50;;;;;;;;;;1857161;75;26705;-33
2021/12/01 05:38:51;;;;;;;0.50;0.50;;;;;;;;;;1855038;75;26265;-33
2021/12/01 05:41:18;;;;;;;0.62;0.50;;;;;;;;;;1852522;75;26386;-35
2021/12/01 05:43:45;;;;;;;1.07;0.50;;;;;;;;;;1856682;75;27040;-34
2021/12/01 05:46:13;;;;;;;0.40;0.40;;;;;;;;;;1853065;75;26253;-33
2021/12/01 05:48:40;;;;;;;0.40;0.40;;;;;;;;;;1856631;75;26327;-33
2021/12/01 05:51:08;;;;;;;0.60;0.60;;;;;;;;;;1858485;75;26376;-33
2021/12/01 05:53:35;;;;;;;0.40;0.40;;;;;;;;;;1855863;75;26991;-34
2021/12/01 05:56:03;;;;;;;4.55;0.62;;;;;;;;;;1861661;75;26346;-35
2021/12/01 05:58:31;;;;;;;0.45;0.45;;;;;;;;;;1862200;75;26381;-33
2021/12/01 06:00:58;;;;;;;0.40;0.40;;;;;;;;;;1857680;75;26388;-33
2021/12/01 06:03:27;;;;;;;1.15;0.62;;;;;;;;;;1863259;75;26285;-34
2021/12/01 06:05:55;;;;;;;0.40;0.40;;;;;;;;;;1859200;75;26260;-33
2021/12/01 06:08:22;;;;;;;0.68;0.68;;;;;;;;;;1858383;75;26697;-34
2021/12/01 06:10:50;;;;;;;0.50;0.50;;;;;;;;;;1856426;75;26245;-33
2021/12/01 06:13:18;;;;;;;0.47;0.47;;;;;;;;;;1861992;75;26380;-33
2021/12/01 06:15:45;;;;;;;0.50;0.50;;;;;;;;;;1855227;75;26257;-33
2021/12/01 06:18:13;;;;;;;0.23;0.23;;;;;;;;;;1856200;76;26346;-33
2021/12/01 06:20:40;;;;;;;0.50;0.50;;;;;;;;;;1855886;75;26270;-33
2021/12/01 06:23:08;;;;;;;0.50;0.50;;;;;;;;;;1860900;75;26303;-33
2021/12/01 06:25:35;;;;;;;2.08;0.50;;;;;;;;;;1859181;75;26329;-37
2021/12/01 06:28:03;;;;;;;0.53;0.53;;;;;;;;;;1851920;75;26261;-34
2021/12/01 06:30:32;;;;;;;0.72;0.50;;;;;;;;;;1847301;75;25693;-35
2021/12/01 06:32:59;;;;;;;2.22;0.50;;;;;;;;;;1841754;75;26292;-34
2021/12/01 06:35:27;;;;;;;1.07;0.75;;;;;;;;;;1859299;75;26337;-34
2021/12/01 06:37:55;;;;;;;12.35;0.70;;;;;;;;;;1855831;75;26732;-35
2021/12/01 06:40:23;;;;;;;2.98;0.65;;;;;;;;;;1856112;75;26824;-34
2021/12/01 06:42:51;;;;;;;3.67;0.60;;;;;;;;;;1853559;75;26295;-34
2021/12/01 06:45:18;;;;;;;4.00;0.98;;;;;;;;;;1860468;77;26281;-35
2021/12/01 06:47:46;;;;;;;4.95;0.90;;;;;;;;;;1852786;75;26253;-36
2021/12/01 06:50:14;;;;;;;4.80;1.22;;;;;;;;;;1857243;77;26544;-34
2021/12/01 06:52:41;;;;;;;2.12;0.90;;;;;;;;;;1859431;75;26301;-35
2021/12/01 06:55:10;;;;;;;0.88;0.70;;;;;;;;;;1860429;75;26249;-35
2021/12/01 06:57:37;;;;;;;4.35;0.70;;;;;;;;;;1856650;75;26752;-34
2021/12/01 07:00:06;;;;;;;2.45;0.80;;;;;;;;;;1837152;77;26280;-34
2021/12/01 07:02:34;;;;;;;2.60;0.90;;;;;;;;;;1858247;75;26737;-34
2021/12/01 07:05:01;;;;;;;1.37;0.60;;;;;;;;;;1868438;75;26440;-34
2021/12/01 07:07:28;;;;;;;0.75;0.75;;;;;;;;;;1856999;75;26329;-34
2021/12/01 07:09:56;;;;;;;0.88;0.70;;;;;;;;;;1858736;75;26602;-34
2021/12/01 07:12:23;;;;;;;2.33;0.68;;;;;;;;;;1849470;75;26696;-34
2021/12/01 07:14:51;;;;;;;1.10;0.80;;;;;;;;;;1833615;76;26363;-34
2021/12/01 07:17:19;;;;;;;1.85;0.80;;;;;;;;;;1829791;76;26981;-34
2021/12/01 07:19:48;;;;;;;0.68;0.68;;;;;;;;;;1829670;77;26285;-34
2021/12/01 07:22:15;;;;;;;3.50;0.70;;;;;;;;;;1836609;77;26281;-34
2021/12/01 07:24:43;;;;;;;1.62;0.80;;;;;;;;;;1835379;76;26902;-34
2021/12/01 07:27:11;;;;;;;0.60;0.60;;;;;;;;;;1832558;76;26265;-34
2021/12/01 07:29:38;;;;;;;1.17;0.70;;;;;;;;;;1841133;76;26776;-34
2021/12/01 07:32:06;;;;;;;0.60;0.60;;;;;;;;;;1829969;76;26305;-34
2021/12/01 07:34:41;;;;;;;1.47;0.80;;;;;;;;;;1841338;76;26191;-34
2021/12/01 07:37:02;;;;;;;2.72;0.75;;;;;;;;;;1847585;76;26312;-33
2021/12/01 07:39:29;;;;;;;1.67;0.72;;;;;;;;;;1846975;76;26327;-34
2021/12/01 07:41:57;;;;;;;1.95;0.90;;;;;;;;;;1843513;76;26277;-33
2021/12/01 07:44:24;;;;;;;0.60;0.60;;;;;;;;;;1835349;77;26291;-33
2021/12/01 07:46:51;;;;;;;0.88;0.70;;;;;;;;;;1837317;76;26907;-33
2021/12/01 07:49:19;;;;;;;0.55;0.55;;;;;;;;;;1839211;76;26776;-33
2021/12/01 07:51:46;;;;;;;0.70;0.70;;;;;;;;;;1838252;76;26296;-33
2021/12/01 07:54:14;;;;;;;1.40;0.70;;;;;;;;;;1842863;76;26398;-33
2021/12/01 07:56:41;;;;;;;0.65;0.65;;;;;;;;;;1845512;76;26775;-33
2021/12/01 07:59:10;;;;;;;2.65;0.70;;;;;;;;;;1841620;76;26351;-33
2021/12/01 08:01:37;;;;;;;0.60;0.60;;;;;;;;;;1845197;76;26281;-33
2021/12/01 08:04:05;;;;;;;1.75;0.85;;;;;;;;;;1844436;76;26408;-34
2021/12/01 08:06:33;;;;;;;1.07;0.70;;;;;;;;;;1842162;76;26350;-34
2021/12/01 08:09:01;;;;;;;1.67;0.60;;;;;;;;;;1845184;76;26593;-36
2021/12/01 08:11:28;;;;;;;1.85;0.88;;;;;;;;;;1840413;76;26311;-35
2021/12/01 08:13:56;;;;;;;0.60;0.60;;;;;;;;;;1838761;76;27356;-34
2021/12/01 08:16:23;;;;;;;1.85;0.68;;;;;;;;;;1841607;76;26308;-35
2021/12/01 08:18:55;;;;;;;0.60;0.60;;;;;;;;;;1838839;76;26706;-35
2021/12/01 08:21:23;;;;;;;0.65;0.47;;;;;;;;;;1836604;76;26341;-34
2021/12/01 08:23:51;;;;;;;0.70;0.70;;;;;;;;;;1841253;76;26265;-33
2021/12/01 08:26:19;;;;;;;0.60;0.60;;;;;;;;;;1842191;76;26281;-35
2021/12/01 08:28:46;;;;;;;5.35;0.80;;;;;;;;;;1826589;76;28110;-35
2021/12/01 08:31:14;;;;;;;3.12;0.70;;;;;;;;;;1839900;76;26195;-34
2021/12/01 08:33:42;;;;;;;1.85;0.80;;;;;;;;;;1835997;76;26258;-35
2021/12/01 08:36:10;;;;;;;0.70;0.70;;;;;;;;;;1838814;76;26629;-39
2021/12/01 08:38:38;;;;;;;3.40;0.50;;;;;;;;;;1841721;76;26598;-34
2021/12/01 08:41:06;;;;;;;0.60;0.60;;;;;;;;;;1843643;76;26270;-34
2021/12/01 08:43:34;;;;;;;0.50;0.50;;;;;;;;;;1847778;76;26257;-33
2021/12/01 08:46:06;;;;;;;0.65;0.65;;;;;;;;;;1843638;77;25660;-35
2021/12/01 08:48:33;;;;;;;0.65;0.60;;;;;;;;;;1839574;76;27435;-34
2021/12/01 08:51:02;;;;;;;1.75;0.60;;;;;;;;;;1851563;76;26300;-34
2021/12/01 08:53:31;;;;;;;0.60;0.60;;;;;;;;;;1833536;76;26254;-34
2021/12/01 08:55:59;;;;;;;0.60;0.60;;;;;;;;;;1830837;77;26366;-34
2021/12/01 08:58:27;;;;;;;0.88;0.78;;;;;;;;;;1833151;77;26354;-32
2021/12/01 09:00:55;;;;;;;14.05;0.60;;;;;;;;;;1844763;76;26370;-38
2021/12/01 09:03:23;;;;;;;1.45;0.62;;;;;;;;;;1834253;77;26284;-35
2021/12/01 09:05:50;;;;;;;0.50;0.50;;;;;;;;;;1841287;76;26250;-35
2021/12/01 09:08:20;;;;;;;0.60;0.60;;;;;;;;;;1842557;76;26303;-31
2021/12/01 09:10:49;;;;;;;0.90;0.47;;;;;;;;;;1837934;76;25876;-32
2021/12/01 09:13:17;;;;;;;2.60;0.70;;;;;;;;;;1809630;76;28105;-36
2021/12/01 09:15:44;;;;;;;0.55;0.55;;;;;;;;;;1850496;75;26297;-35
2021/12/01 09:18:12;;;;;;;0.60;0.60;;;;;;;;;;1848347;76;26292;-33
2021/12/01 09:20:39;;;;;;;0.68;0.68;;;;;;;;;;1859309;76;26335;-37
2021/12/01 09:23:07;;;;;;;0.60;0.60;;;;;;;;;;1848970;75;26261;-33
2021/12/01 09:25:34;;;;;;;0.50;0.50;;;;;;;;;;1862888;77;26284;-33
2021/12/01 09:28:02;;;;;;;0.60;0.60;;;;;;;;;;1859755;77;26292;-31
2021/12/01 09:30:30;;;;;;;1.27;0.70;;;;;;;;;;1847090;75;26654;-33
2021/12/01 09:32:57;;;;;;;1.22;0.70;;;;;;;;;;1830119;75;28177;-36
2021/12/01 09:35:24;;;;;;;0.70;0.70;;;;;;;;;;1857853;75;26729;-36
2021/12/01 09:37:52;;;;;;;0.70;0.70;;;;;;;;;;1858882;75;26260;-36
2021/12/01 09:40:19;;;;;;;0.57;0.57;;;;;;;;;;1857737;75;26275;-37
2021/12/01 09:42:49;;;;;;;0.60;0.60;;;;;;;;;;1844764;75;26269;-30
2021/12/01 09:45:18;;;;;;;0.60;0.60;;;;;;;;;;1847966;75;26277;-31
2021/12/01 09:47:45;;;;;;;0.60;0.60;;;;;;;;;;1856372;75;26821;-33
2021/12/01 09:50:12;;;;;;;0.60;0.60;;;;;;;;;;1860214;75;26732;-33
2021/12/01 09:52:40;;;;;;;0.68;0.68;;;;;;;;;;1856142;75;26358;-33
2021/12/01 09:55:11;;;;;;;0.70;0.70;;;;;;;;;;1857035;77;27165;-36
2021/12/01 09:57:38;;;;;;;0.70;0.70;;;;;;;;;;1845989;75;26244;-36
2021/12/01 10:00:06;;;;;;;0.70;0.70;;;;;;;;;;1852612;75;26256;-36
2021/12/01 10:02:35;;;;;;;0.53;0.53;;;;;;;;;;1855627;75;26277;-34
2021/12/01 10:05:02;;;;;;;0.50;0.50;;;;;;;;;;1854768;75;26795;-34
2021/12/01 10:07:33;;;;;;;0.60;0.60;;;;;;;;;;1853487;75;26241;-34
2021/12/01 10:10:02;;;;;;;0.98;0.70;;;;;;;;;;1851080;75;28230;-31
2021/12/01 10:12:31;;;;;;;0.60;0.60;;;;;;;;;;1853521;75;26347;-34
2021/12/01 10:14:58;;;;;;;0.65;0.65;;;;;;;;;;1842140;75;26355;-34
2021/12/01 10:17:35;;;;;;;0.60;0.60;;;;;;;;;;1852529;76;26264;-34
2021/12/01 10:20:11;;;;;;;0.60;0.60;;;;;;;;;;1853232;76;26261;-34
2021/12/01 10:22:38;;;;;;;0.70;0.70;;;;;;;;;;1850528;76;26258;-34
2021/12/01 10:25:07;;;;;;;0.60;0.60;;;;;;;;;;1851468;76;26276;-33
2021/12/01 10:27:38;;;;;;;0.60;0.60;;;;;;;;;;1853847;76;26783;-33
2021/12/01 10:30:06;;;;;;;0.60;0.60;;;;;;;;;;1854093;76;26252;-32
2021/12/01 10:32:33;;;;;;;0.60;0.60;;;;;;;;;;1854455;77;26315;-32
2021/12/01 10:35:02;;;;;;;0.70;0.70;;;;;;;;;;1849186;76;26744;-32
2021/12/01 10:37:31;;;;;;;0.60;0.60;;;;;;;;;;1850246;77;26335;-34
2021/12/01 10:40:09;;;;;;;0.60;0.60;;;;;;;;;;1849599;77;26366;-34
2021/12/01 10:42:38;;;;;;;0.60;0.60;;;;;;;;;;1849227;76;26305;-33
2021/12/01 10:45:06;;;;;;;0.70;0.70;;;;;;;;;;1820882;76;28227;-35
2021/12/01 10:47:38;;;;;;;0.90;0.55;;;;;;;;;;1853132;77;26539;-31
2021/12/01 10:50:06;;;;;;;0.60;0.60;;;;;;;;;;1844494;76;26403;-31
2021/12/01 10:52:37;;;;;;;0.60;0.60;;;;;;;;;;1850222;76;26108;-33
2021/12/01 10:55:09;;;;;;;0.60;0.60;;;;;;;;;;1850680;76;26253;-32
2021/12/01 10:57:38;;;;;;;0.60;0.60;;;;;;;;;;1844784;77;26280;-31
2021/12/01 11:00:07;;;;;;;0.70;0.70;;;;;;;;;;1841709;76;26367;-34
2021/12/01 11:02:35;;;;;;;0.60;0.60;;;;;;;;;;1850516;76;26276;-34
2021/12/01 11:05:02;;;;;;;0.60;0.60;;;;;;;;;;1823577;76;28674;-33
2021/12/01 11:07:31;;;;;;;0.70;0.70;;;;;;;;;;1849697;76;26331;-33
2021/12/01 11:10:18;;;;;;;0.60;0.60;;;;;;;;;;1848159;76;26646;-33
2021/12/01 11:12:47;;;;;;;0.60;0.60;;;;;;;;;;1836721;77;28108;-33
2021/12/01 11:15:18;;;;;;;0.70;0.70;;;;;;;;;;1832775;76;26314;-32
2021/12/01 11:17:46;;;;;;;0.70;0.70;;;;;;;;;;1822486;76;28092;-30
2021/12/01 11:20:15;;;;;;;0.70;0.70;;;;;;;;;;1836357;76;26267;-40
2021/12/01 11:22:42;;;;;;;0.70;0.70;;;;;;;;;;1837847;76;26263;-39
2021/12/01 11:25:20;;;;;;;0.60;0.60;;;;;;;;;;1830229;76;26261;-41
2021/12/01 11:27:48;;;;;;;0.60;0.60;;;;;;;;;;1846689;77;26262;-42
2021/12/01 11:30:16;;;;;;;0.60;0.60;;;;;;;;;;1838806;76;26242;-42
2021/12/01 11:32:43;;;;;;;0.57;0.57;;;;;;;;;;1847454;76;26253;-43
2021/12/01 11:35:10;;;;;;;0.70;0.70;;;;;;;;;;1841349;76;28183;-31
2021/12/01 11:37:38;;;;;;;0.60;0.60;;;;;;;;;;1833401;76;28264;-34
2021/12/01 11:40:06;;;;;;;0.70;0.70;;;;;;;;;;1840568;76;26311;-34
2021/12/01 11:42:33;;;;;;;0.62;0.62;;;;;;;;;;1839176;76;26653;-36
2021/12/01 11:45:01;;;;;;;36.65;2.00;;;;;;;;;;1826276;76;28204;-31
2021/12/01 11:47:29;;;;;;;4.40;0.70;;;;;;;;;;1836866;76;26713;-34
2021/12/01 11:49:58;;;;;;;3.60;0.80;;;;;;;;;;1843571;76;26323;-33
2021/12/01 11:52:27;;;;;;;8.88;1.30;;;;;;;;;;1840716;76;26352;-34
2021/12/01 11:54:54;;;;;;;10.03;1.10;;;;;;;;;;1839741;76;26344;-33
2021/12/01 11:57:21;;;;;;;13.98;1.20;;;;;;;;;;1840496;76;26305;-33
2021/12/01 11:59:49;;;;;;;7.70;1.12;;;;;;;;;;1840283;76;26217;-33
2021/12/01 12:02:17;;;;;;;14.53;1.40;;;;;;;;;;1834629;76;28625;-34
2021/12/01 12:04:46;;;;;;;10.15;0.90;;;;;;;;;;1839818;76;26954;-34
2021/12/01 12:07:15;;;;;;;6.85;1.62;;;;;;;;;;1838656;76;26254;-34
2021/12/01 12:09:43;;;;;;;6.50;1.10;;;;;;;;;;1831745;76;26277;-34
2021/12/01 12:12:12;;;;;;;8.43;1.07;;;;;;;;;;1827942;76;28117;-35
2021/12/01 12:14:41;;;;;;;1.75;0.90;;;;;;;;;;1838503;76;26253;-35
2021/12/01 12:17:12;;;;;;;4.12;1.02;;;;;;;;;;1836819;75;28109;-35
2021/12/01 12:19:46;;;;;;;7.40;0.90;;;;;;;;;;1860729;77;26736;-37
2021/12/01 12:22:24;;;;;;;3.33;0.88;;;;;;;;;;1851000;77;26676;-34
2021/12/01 12:24:53;;;;;;;3.08;0.80;;;;;;;;;;1845504;76;26808;-33
2021/12/01 12:27:31;;;;;;;3.17;0.75;;;;;;;;;;1851748;75;26257;-34
2021/12/01 12:29:59;;;;;;;2.35;0.80;;;;;;;;;;1841367;75;25851;-34
2021/12/01 12:32:30;;;;;;;2.90;0.90;;;;;;;;;;1862421;75;26676;-34
2021/12/01 12:35:00;;;;;;;2.67;0.80;;;;;;;;;;1857485;75;26375;-34
2021/12/01 12:37:34;;;;;;;4.03;0.85;;;;;;;;;;1848135;75;26206;-34
2021/12/01 12:39:59;;;;;;;5.08;1.10;;;;;;;;;;1852870;75;26269;-34
2021/12/01 12:42:28;;;;;;;1.25;0.90;;;;;;;;;;1859218;75;26310;-34
2021/12/01 12:44:57;;;;;;;1.65;0.90;;;;;;;;;;1848904;75;26288;-34
2021/12/01 12:47:41;;;;;;;1.47;0.80;;;;;;;;;;1849377;75;27455;-34
2021/12/01 12:50:16;;;;;;;2.80;0.62;;;;;;;;;;1852114;75;26254;-34
2021/12/01 12:52:47;;;;;;;2.05;0.90;;;;;;;;;;1854196;75;26326;-34
2021/12/01 12:55:22;;;;;;;1.90;1.00;;;;;;;;;;1844351;75;26265;-34
2021/12/01 12:57:57;;;;;;;0.95;0.70;;;;;;;;;;1844791;75;26257;-34
2021/12/01 13:00:29;;;;;;;1.57;0.82;;;;;;;;;;1858995;75;26855;-34
2021/12/01 13:02:58;;;;;;;3.10;0.85;;;;;;;;;;1854875;75;26308;-34
2021/12/01 13:05:36;;;;;;;3.22;0.93;;;;;;;;;;1852956;76;26379;-34
2021/12/01 13:08:04;;;;;;;1.12;0.82;;;;;;;;;;1858164;76;26803;-34
2021/12/01 13:10:33;;;;;;;1.10;1.00;;;;;;;;;;1852669;75;26714;-35
2021/12/01 13:13:05;;;;;;;1.10;0.90;;;;;;;;;;1843980;75;26740;-33
2021/12/01 13:15:36;;;;;;;1.57;0.90;;;;;;;;;;1849479;75;26296;-33
2021/12/01 13:18:05;;;;;;;1.47;0.72;;;;;;;;;;1843138;76;26334;-33
2021/12/01 13:20:34;;;;;;;0.90;0.90;;;;;;;;;;1834272;76;26634;-33
2021/12/01 13:23:05;;;;;;;0.98;0.95;;;;;;;;;;1842667;76;26286;-34
2021/12/01 13:25:33;;;;;;;0.88;0.88;;;;;;;;;;1846065;77;26324;-33
2021/12/01 13:28:03;;;;;;;1.67;0.90;;;;;;;;;;1843553;77;26689;-33
2021/12/01 13:30:35;;;;;;;8.08;1.32;;;;;;;;;;1847262;77;26210;-34
2021/12/01 13:33:10;;;;;;;0.80;0.80;;;;;;;;;;1848526;77;26705;-34
2021/12/01 13:35:38;;;;;;;4.08;0.93;;;;;;;;;;1844908;76;26714;-34
2021/12/01 13:38:05;;;;;;;2.85;0.80;;;;;;;;;;1846361;77;26351;-34
2021/12/01 13:40:36;;;;;;;1.55;0.72;;;;;;;;;;1847600;76;26315;-35
2021/12/01 13:43:02;;;;;;;1.90;0.82;;;;;;;;;;1847970;76;26292;-37
2021/12/01 13:45:29;;;;;;;1.27;0.90;;;;;;;;;;1841044;76;26194;-33
2021/12/01 13:47:57;;;;;;;1.30;0.85;;;;;;;;;;1835697;76;28549;-35
2021/12/01 13:50:24;;;;;;;1.70;1.00;;;;;;;;;;1834198;76;26316;-35
2021/12/01 13:52:51;;;;;;;2.92;0.85;;;;;;;;;;1833460;76;26332;-37
2021/12/01 13:55:32;;;;;;;3.22;0.93;;;;;;;;;;1827194;76;26629;-33
2021/12/01 13:58:09;;;;;;;0.93;0.80;;;;;;;;;;1829601;76;26859;-37
2021/12/01 14:00:38;;;;;;;1.07;0.95;;;;;;;;;;1834037;76;26265;-38
2021/12/01 14:03:07;;;;;;;1.90;1.05;;;;;;;;;;1832474;76;26277;-36
2021/12/01 14:05:35;;;;;;;7.10;0.90;;;;;;;;;;1825569;77;26883;-35
2021/12/01 14:08:15;;;;;;;1.57;1.00;;;;;;;;;;1843165;76;26277;-32
2021/12/01 14:10:51;;;;;;;0.90;0.90;;;;;;;;;;1833906;76;26317;-33
2021/12/01 14:13:20;;;;;;;2.53;0.90;;;;;;;;;;1818092;76;28583;-35
2021/12/01 14:15:48;;;;;;;1.57;1.00;;;;;;;;;;1840875;76;26926;-34
2021/12/01 14:18:17;;;;;;;1.07;0.88;;;;;;;;;;1847906;77;26367;-36
2021/12/01 14:20:44;;;;;;;0.78;0.78;;;;;;;;;;1848028;77;26292;-34
2021/12/01 14:23:11;;;;;;;6.20;1.00;;;;;;;;;;1837033;76;26277;-31
2021/12/01 14:25:40;;;;;;;3.00;0.90;;;;;;;;;;1831961;76;26716;-33
2021/12/01 14:28:11;;;;;;;3.55;0.90;;;;;;;;;;1830395;76;28614;-32
2021/12/01 14:30:40;;;;;;;2.52;0.98;;;;;;;;;;1829458;76;26632;-32
2021/12/01 14:33:09;;;;;;;2.42;0.90;;;;;;;;;;1837763;76;26335;-32
2021/12/01 14:35:36;;;;;;;0.80;0.80;;;;;;;;;;1842562;77;26257;-32
2021/12/01 14:38:04;;;;;;;2.60;1.10;;;;;;;;;;1846499;77;26249;-32
2021/12/01 14:40:33;;;;;;;0.78;0.78;;;;;;;;;;1843231;77;26242;-32
2021/12/01 14:43:00;;;;;;;1.85;0.80;;;;;;;;;;1845248;77;26363;-32
2021/12/01 14:45:28;;;;;;;0.88;0.80;;;;;;;;;;1841029;77;26258;-32
2021/12/01 14:48:03;;;;;;;5.70;0.82;;;;;;;;;;1840697;76;27395;-32
2021/12/01 14:50:31;;;;;;;1.85;0.82;;;;;;;;;;1845245;76;26242;-32
2021/12/01 14:53:12;;;;;;;2.30;1.20;;;;;;;;;;1846923;76;26748;-32
2021/12/01 14:55:44;;;;;;;2.58;1.00;;;;;;;;;;1847550;76;26319;-33
2021/12/01 14:58:10;;;;;;;2.47;1.52;;;;;;;;;;1844805;76;26246;-32
2021/12/01 15:00:39;;;;;;;6.58;1.70;;;;;;;;;;1843817;76;26344;-32